KSNS

Salinas Municipal Airport

Salinas, California, USA
METAR KSNS 092253Z AUTO 30005KT 10SM CLR 17/08 A3025 RMK AO2 SLP253 T01670078
Observed Flight Rules
Dec-9 @ 22:53 UTC (58 minutes ago) Visual Flight Rules
Wind Visibility Clouds
300° at 5 knots 10 miles
  • Clear skies
Temperatures Readings
Current 17°C / 63°F
Dewpoint 8°C / 46°F
Humidity 56%
Altimeter 30.25" Hg
Pressure 1025.3 hPa
Elevation 30
METAR KSNS 092253Z AUTO 30005KT 10SM CLR 17/08 A3025 RMK AO2 SLP253 T01670078
Observed Flight Rules
Dec-9 @ 22:53 UTC
(58 minutes ago)
VFR
Wind Visibility
300° at 5 knots 10 miles
Clouds
  • Clear skies
Temperature Dewpoint
17°C / 63°F 8°C / 46°F
Humidity Altimeter Pressure
56% 30.25" Hg 1025.3 hPa